Time;durP1;ratioP1;P1;durP2;ratioP2;P2;SDS_P1;SDS_P2;PMS_P1;PMS_P2;Temp;Humidity;BMP_temperature;BMP_pressure;BME280_temperature;BME280_humidity;BME280_pressure;Samples;Min_cycle;Max_cycle;Signal;HPM_P1;HPM_P2
2023/12/10 00:02:19;;;;;;;3.40;2.40;;;16.30;63.80;;;;;;5033173;28;20463;-81
2023/12/10 00:04:47;;;;;;;5.73;2.43;;;16.40;64.20;;;;;;5036971;28;20448;-81
2023/12/10 00:07:16;;;;;;;2.90;2.17;;;16.40;64.00;;;;;;5034030;28;21075;-82
2023/12/10 00:09:45;;;;;;;5.97;2.60;;;16.40;64.00;;;;;;5031456;28;21006;-82
2023/12/10 00:12:13;;;;;;;3.43;2.30;;;16.40;64.00;;;;;;5035331;28;20442;-81
2023/12/10 00:14:41;;;;;;;3.50;2.80;;;16.40;64.10;;;;;;5047788;28;20461;-81
2023/12/10 00:17:09;;;;;;;5.60;2.60;;;16.40;64.10;;;;;;5060776;22;20472;-80
2023/12/10 00:19:37;;;;;;;6.70;2.70;;;16.40;64.00;;;;;;5070779;28;20465;-82
2023/12/10 00:22:05;;;;;;;4.70;2.57;;;16.40;64.10;;;;;;5070777;28;20477;-81
2023/12/10 00:24:32;;;;;;;5.90;2.73;;;16.40;64.70;;;;;;5072498;28;20503;-81
2023/12/10 00:27:02;;;;;;;9.03;2.60;;;16.40;64.10;;;;;;5067976;28;20484;-82
2023/12/10 00:29:30;;;;;;;8.40;2.40;;;16.40;63.90;;;;;;5046387;28;20434;-81
2023/12/10 00:31:58;;;;;;;2.73;2.43;;;16.40;64.10;;;;;;5052751;28;20435;-82
2023/12/10 00:34:26;;;;;;;6.67;3.37;;;16.40;64.10;;;;;;5049983;28;20441;-82
2023/12/10 00:36:53;;;;;;;5.13;3.00;;;16.50;64.30;;;;;;5055599;28;20435;-82
2023/12/10 00:39:21;;;;;;;4.30;2.50;;;16.50;64.40;;;;;;5044727;28;20455;-81
2023/12/10 00:41:49;;;;;;;3.53;2.40;;;16.50;64.30;;;;;;5052894;28;20470;-80
2023/12/10 00:44:19;;;;;;;2.97;2.30;;;16.50;64.20;;;;;;5048047;28;20458;-81
2023/12/10 00:46:47;;;;;;;3.83;2.67;;;16.50;64.10;;;;;;5042336;28;20447;-82
2023/12/10 00:49:15;;;;;;;7.77;2.47;;;16.50;64.20;;;;;;5043680;28;20532;-81
2023/12/10 00:51:43;;;;;;;7.80;2.17;;;16.50;64.20;;;;;;5036549;28;20435;-80
2023/12/10 00:54:11;;;;;;;5.43;2.47;;;16.50;64.30;;;;;;5065510;28;20469;-82
2023/12/10 00:56:39;;;;;;;5.90;2.33;;;16.50;64.30;;;;;;5069328;28;20550;-81
2023/12/10 00:59:07;;;;;;;9.27;2.97;;;16.50;64.20;;;;;;5054623;28;20455;-80
2023/12/10 01:01:37;;;;;;;5.00;2.87;;;16.50;64.30;;;;;;5060487;28;20463;-81
2023/12/10 01:04:05;;;;;;;5.70;3.03;;;16.50;64.10;;;;;;5064294;28;20431;-82
2023/12/10 01:06:33;;;;;;;6.33;2.50;;;16.50;64.20;;;;;;5065872;28;20435;-81
2023/12/10 01:09:01;;;;;;;6.93;2.90;;;16.50;64.30;;;;;;5060127;28;20466;-81
2023/12/10 01:11:29;;;;;;;10.57;2.90;;;16.50;64.20;;;;;;5050421;28;20477;-82
2023/12/10 01:13:57;;;;;;;7.77;3.27;;;16.50;64.10;;;;;;5057082;28;20469;-82
2023/12/10 01:16:25;;;;;;;7.30;3.07;;;16.50;64.20;;;;;;5058824;28;20486;-81
2023/12/10 01:18:54;;;;;;;8.33;2.83;;;16.50;64.30;;;;;;5057901;28;20524;-81
2023/12/10 01:21:22;;;;;;;7.47;2.90;;;16.50;64.30;;;;;;5050073;28;20534;-82
2023/12/10 01:23:54;;;;;;;7.47;2.90;;;16.50;64.10;;;;;;5054623;28;20509;-82
2023/12/10 01:26:22;;;;;;;8.30;2.90;;;16.50;64.40;;;;;;5054957;28;20548;-82
2023/12/10 01:28:51;;;;;;;5.60;2.60;;;16.50;64.40;;;;;;5059127;28;20530;-82
2023/12/10 01:31:19;;;;;;;9.67;2.80;;;16.50;64.50;;;;;;5042804;28;20443;-81
2023/12/10 01:33:47;;;;;;;6.67;2.70;;;16.50;64.40;;;;;;5046310;28;20426;-81
2023/12/10 01:36:23;;;;;;;6.20;2.50;;;16.50;64.50;;;;;;5046844;28;20440;-82
2023/12/10 01:38:50;;;;;;;9.80;3.03;;;16.50;64.40;;;;;;5048225;28;20527;-82
2023/12/10 01:41:19;;;;;;;6.17;2.63;;;16.50;64.40;;;;;;5057379;28;20443;-82
2023/12/10 01:43:47;;;;;;;6.50;2.87;;;16.50;64.40;;;;;;5045393;28;20475;-82
2023/12/10 01:46:14;;;;;;;5.10;2.50;;;16.50;64.60;;;;;;5055752;28;20443;-82
2023/12/10 01:48:43;;;;;;;6.87;2.60;;;16.50;64.60;;;;;;5047806;28;20456;-81
2023/12/10 01:51:11;;;;;;;8.90;3.10;;;16.60;64.70;;;;;;5047356;28;20534;-81
2023/12/10 01:53:40;;;;;;;5.93;2.67;;;16.50;64.50;;;;;;5048491;28;20471;-81
2023/12/10 01:56:09;;;;;;;11.13;2.90;;;16.60;64.70;;;;;;5056299;28;20458;-82
2023/12/10 01:58:39;;;;;;;7.00;2.80;;;16.50;64.40;;;;;;5059844;28;20578;-82
2023/12/10 02:01:06;;;;;;;5.13;2.50;;;16.60;64.70;;;;;;5046011;28;20526;-80
2023/12/10 02:03:35;;;;;;;4.23;2.30;;;16.60;64.60;;;;;;5049148;28;20553;-80
2023/12/10 02:06:03;;;;;;;10.30;3.00;;;16.60;64.50;;;;;;5058184;28;20572;-80
2023/12/10 02:08:31;;;;;;;9.73;3.07;;;16.50;64.60;;;;;;5050990;28;20451;-80
2023/12/10 02:11:01;;;;;;;7.70;3.00;;;16.50;64.70;;;;;;5063286;28;20886;-80
2023/12/10 02:13:29;;;;;;;9.93;3.50;;;16.60;64.80;;;;;;5059282;28;20455;-80
2023/12/10 02:15:57;;;;;;;11.73;3.47;;;16.50;64.60;;;;;;5074103;28;20477;-81
2023/12/10 02:18:25;;;;;;;11.23;3.20;;;16.60;64.70;;;;;;5059998;28;20477;-81
2023/12/10 02:20:54;;;;;;;8.20;2.27;;;16.60;64.60;;;;;;5050586;28;20443;-81
2023/12/10 02:23:31;;;;;;;6.87;2.80;;;16.50;64.40;;;;;;5041921;28;20467;-80
2023/12/10 02:26:00;;;;;;;9.00;3.50;;;16.50;64.60;;;;;;5053440;28;20469;-81
2023/12/10 02:28:29;;;;;;;11.60;3.30;;;16.50;64.70;;;;;;5047010;28;20562;-81
2023/12/10 02:30:57;;;;;;;7.53;3.20;;;16.60;64.70;;;;;;5050901;28;20476;-80
2023/12/10 02:33:25;;;;;;;7.00;3.40;;;16.50;64.50;;;;;;5049803;28;20478;-80
2023/12/10 02:35:53;;;;;;;11.97;3.23;;;16.50;64.60;;;;;;5043725;28;20478;-81
2023/12/10 02:38:21;;;;;;;8.47;3.20;;;16.50;64.50;;;;;;5043051;28;20480;-81
2023/12/10 02:40:49;;;;;;;11.00;3.30;;;16.50;64.40;;;;;;5043052;28;20432;-81
2023/12/10 02:43:19;;;;;;;12.03;3.77;;;16.50;64.60;;;;;;5053726;28;20471;-81
2023/12/10 02:45:47;;;;;;;10.70;3.10;;;16.50;64.40;;;;;;5048423;28;20489;-81
2023/12/10 02:48:21;;;;;;;7.53;2.83;;;16.50;64.60;;;;;;5044851;28;20458;-81
2023/12/10 02:50:50;;;;;;;10.03;3.53;;;16.50;64.60;;;;;;5052793;28;20422;-81
2023/12/10 02:53:18;;;;;;;17.20;3.50;;;16.50;64.40;;;;;;5045027;28;20475;-81
2023/12/10 02:55:46;;;;;;;10.83;3.30;;;16.50;64.50;;;;;;5043093;28;20444;-81
2023/12/10 02:58:15;;;;;;;11.13;3.00;;;16.50;64.70;;;;;;5043647;28;20481;-81
2023/12/10 03:00:44;;;;;;;11.67;2.90;;;16.50;64.60;;;;;;5047792;28;20455;-81
2023/12/10 03:03:12;;;;;;;10.90;3.10;;;16.50;64.60;;;;;;5051324;28;20466;-81
2023/12/10 03:05:40;;;;;;;6.20;2.43;;;16.50;64.70;;;;;;5051062;28;20517;-81
2023/12/10 03:08:08;;;;;;;10.47;2.80;;;16.50;64.70;;;;;;5042160;28;20490;-81
2023/12/10 03:10:36;;;;;;;8.13;3.00;;;16.50;64.60;;;;;;5045005;28;20450;-81
2023/12/10 03:13:04;;;;;;;12.70;3.77;;;16.50;64.40;;;;;;5048770;28;20443;-81
2023/12/10 03:15:32;;;;;;;11.77;3.37;;;16.40;64.60;;;;;;5051661;28;20431;-80
2023/12/10 03:18:02;;;;;;;8.90;2.80;;;16.40;64.70;;;;;;5045934;28;20469;-81
2023/12/10 03:20:30;;;;;;;13.70;3.37;;;16.40;64.70;;;;;;5049762;28;20454;-81
2023/12/10 03:22:58;;;;;;;13.17;3.33;;;16.40;64.60;;;;;;5055354;28;20481;-81
2023/12/10 03:25:25;;;;;;;10.33;3.13;;;16.40;64.80;;;;;;5048263;28;20473;-80
2023/12/10 03:27:54;;;;;;;10.57;3.50;;;16.40;64.90;;;;;;5044476;28;20511;-81
2023/12/10 03:30:22;;;;;;;15.30;3.60;;;16.40;64.80;;;;;;5046702;28;20451;-81
2023/12/10 03:32:50;;;;;;;11.60;3.23;;;16.40;64.70;;;;;;5049736;28;20443;-81
2023/12/10 03:35:19;;;;;;;14.77;2.93;;;16.40;64.70;;;;;;5042230;28;20459;-81
2023/12/10 03:37:47;;;;;;;12.63;3.37;;;16.40;65.10;;;;;;5056483;28;20470;-80
2023/12/10 03:40:15;;;;;;;8.87;3.13;;;16.40;64.80;;;;;;5046243;28;20444;-81
2023/12/10 03:42:44;;;;;;;7.30;3.17;;;16.30;64.80;;;;;;5047891;28;20492;-81
2023/12/10 03:45:12;;;;;;;13.10;3.17;;;16.40;64.90;;;;;;5047019;28;20475;-81
2023/12/10 03:47:46;;;;;;;14.87;3.20;;;16.40;65.00;;;;;;5054484;28;20470;-81
2023/12/10 03:50:14;;;;;;;13.10;3.03;;;16.40;64.60;;;;;;5039855;28;20511;-81
2023/12/10 03:52:44;;;;;;;5.63;2.60;;;16.40;64.90;;;;;;5040544;28;20471;-81
2023/12/10 03:55:12;;;;;;;11.20;3.20;;;16.40;65.00;;;;;;5051547;28;20450;-81
2023/12/10 03:57:40;;;;;;;11.13;3.23;;;16.30;64.60;;;;;;5042156;28;20470;-81
2023/12/10 04:00:09;;;;;;;15.50;3.23;;;16.30;65.00;;;;;;5043414;28;20443;-80
2023/12/10 04:02:38;;;;;;;11.47;3.43;;;16.40;64.80;;;;;;5046023;28;20443;-81
2023/12/10 04:05:11;;;;;;;12.47;3.07;;;16.30;64.80;;;;;;5048899;28;20513;-81
2023/12/10 04:07:39;;;;;;;11.70;3.13;;;16.30;64.80;;;;;;5046017;28;20551;-80
2023/12/10 04:10:09;;;;;;;11.73;3.10;;;16.30;64.80;;;;;;5053205;28;20910;-80
2023/12/10 04:12:37;;;;;;;12.30;3.13;;;16.40;64.80;;;;;;5048377;28;20474;-80
2023/12/10 04:15:06;;;;;;;9.20;3.13;;;16.30;64.70;;;;;;5045531;28;20458;-81
2023/12/10 04:17:34;;;;;;;12.80;3.37;;;16.30;64.80;;;;;;5046779;28;20506;-80
2023/12/10 04:20:02;;;;;;;8.80;2.50;;;16.30;64.80;;;;;;5055343;28;20427;-81
2023/12/10 04:22:30;;;;;;;12.10;3.40;;;16.30;64.80;;;;;;5046187;28;20531;-81
2023/12/10 04:24:59;;;;;;;13.70;3.20;;;16.30;64.60;;;;;;5043572;28;20504;-81
2023/12/10 04:27:28;;;;;;;11.40;3.00;;;16.30;64.50;;;;;;5054766;28;20467;-81
2023/12/10 04:29:56;;;;;;;12.37;3.10;;;16.30;64.60;;;;;;5047217;28;20454;-81
2023/12/10 04:32:24;;;;;;;11.70;3.07;;;16.30;64.60;;;;;;5043353;28;20450;-81
2023/12/10 04:34:52;;;;;;;8.07;2.50;;;16.30;64.90;;;;;;5053854;28;20449;-81
2023/12/10 04:37:20;;;;;;;8.23;2.57;;;16.30;64.50;;;;;;5052829;28;20460;-81
2023/12/10 04:39:48;;;;;;;9.23;2.90;;;16.30;64.60;;;;;;5053312;28;20473;-81
2023/12/10 04:42:16;;;;;;;11.13;2.77;;;16.30;64.70;;;;;;5046498;28;20427;-82
2023/12/10 04:44:46;;;;;;;9.90;2.77;;;16.30;64.70;;;;;;5057761;28;20485;-81
2023/12/10 04:47:13;;;;;;;10.60;2.90;;;16.30;64.80;;;;;;5053694;28;20953;-81
2023/12/10 04:49:41;;;;;;;8.30;2.80;;;16.30;64.60;;;;;;5044129;28;20534;-81
2023/12/10 04:52:09;;;;;;;13.00;3.10;;;16.30;64.80;;;;;;5045544;28;20640;-81
2023/12/10 04:54:37;;;;;;;14.43;3.27;;;16.30;64.60;;;;;;5048666;28;20435;-81
2023/12/10 04:57:05;;;;;;;8.77;2.80;;;16.30;64.70;;;;;;5041961;28;20538;-82
2023/12/10 04:59:34;;;;;;;7.57;2.30;;;16.30;64.60;;;;;;5050662;28;20471;-81
2023/12/10 05:02:04;;;;;;;14.97;3.03;;;16.30;64.60;;;;;;5056694;28;20477;-81
2023/12/10 05:04:32;;;;;;;10.33;2.97;;;16.30;64.90;;;;;;5052139;28;20559;-81
2023/12/10 05:07:00;;;;;;;7.77;2.53;;;16.30;64.50;;;;;;5047740;28;20521;-81
2023/12/10 05:09:27;;;;;;;9.90;2.30;;;16.30;64.80;;;;;;5053099;28;20829;-81
2023/12/10 05:11:56;;;;;;;7.50;2.60;;;16.30;64.80;;;;;;5055923;28;20434;-81
2023/12/10 05:14:23;;;;;;;9.17;2.43;;;16.30;64.50;;;;;;5055730;28;20485;-82
2023/12/10 05:16:51;;;;;;;7.40;2.63;;;16.30;64.70;;;;;;5054925;28;20481;-81
2023/12/10 05:19:20;;;;;;;13.33;3.47;;;16.30;64.80;;;;;;5056029;28;20512;-81
2023/12/10 05:21:49;;;;;;;9.17;2.63;;;16.30;64.60;;;;;;5043596;28;20810;-81
2023/12/10 05:24:17;;;;;;;11.87;2.40;;;16.30;64.70;;;;;;5042829;28;20478;-81
2023/12/10 05:26:45;;;;;;;10.07;2.60;;;16.20;64.50;;;;;;5048702;28;20448;-81
2023/12/10 05:29:13;;;;;;;11.53;2.90;;;16.20;64.80;;;;;;5046565;28;20455;-81
2023/12/10 05:31:40;;;;;;;9.83;2.30;;;16.20;64.60;;;;;;5042507;28;20474;-81
2023/12/10 05:34:08;;;;;;;9.70;2.37;;;16.30;65.00;;;;;;5045867;28;20451;-81
2023/12/10 05:36:38;;;;;;;11.03;2.93;;;16.30;64.80;;;;;;5057673;28;20455;-81
2023/12/10 05:39:06;;;;;;;9.60;2.73;;;16.20;64.70;;;;;;5055585;28;20489;-82
2023/12/10 05:41:34;;;;;;;11.90;2.30;;;16.20;64.50;;;;;;5045762;28;20460;-80
2023/12/10 05:44:03;;;;;;;9.00;2.00;;;16.20;64.90;;;;;;5046049;28;20459;-82
2023/12/10 05:46:31;;;;;;;8.50;2.37;;;16.20;64.70;;;;;;5050949;28;20505;-81
2023/12/10 05:49:00;;;;;;;8.70;2.70;;;16.20;64.80;;;;;;5048221;28;21027;-81
2023/12/10 05:51:29;;;;;;;8.00;2.33;;;16.20;64.50;;;;;;5062912;28;20439;-81
2023/12/10 05:53:58;;;;;;;8.20;2.30;;;16.20;65.00;;;;;;5070989;28;20449;-82
2023/12/10 05:56:27;;;;;;;10.17;2.60;;;16.20;64.50;;;;;;5068871;28;20430;-82
2023/12/10 05:58:54;;;;;;;8.87;2.43;;;16.20;64.60;;;;;;5061471;28;20509;-80
2023/12/10 06:01:23;;;;;;;6.53;2.20;;;16.20;64.50;;;;;;5054468;28;20473;-82
2023/12/10 06:03:51;;;;;;;8.23;2.27;;;16.20;64.70;;;;;;5060257;28;21000;-82
2023/12/10 06:06:19;;;;;;;6.50;2.17;;;16.20;64.90;;;;;;5049968;28;20467;-81
2023/12/10 06:08:47;;;;;;;5.60;2.07;;;16.20;64.60;;;;;;5054477;28;20451;-83
2023/12/10 06:11:16;;;;;;;6.27;2.10;;;16.20;65.00;;;;;;5060614;28;20574;-82
2023/12/10 06:13:44;;;;;;;11.40;2.40;;;16.20;64.60;;;;;;5048213;28;20439;-82
2023/12/10 06:16:14;;;;;;;8.67;2.30;;;16.20;64.90;;;;;;5046818;28;20430;-83
2023/12/10 06:18:42;;;;;;;12.57;3.10;;;16.20;64.80;;;;;;5047410;28;20477;-82
2023/12/10 06:21:11;;;;;;;7.90;1.80;;;16.20;64.80;;;;;;5049515;28;20455;-82
2023/12/10 06:23:39;;;;;;;5.40;1.80;;;16.20;64.70;;;;;;5053794;28;20467;-81
2023/12/10 06:26:07;;;;;;;9.43;2.80;;;16.20;64.90;;;;;;5054093;28;20474;-82
2023/12/10 06:28:36;;;;;;;8.40;2.77;;;16.20;64.80;;;;;;5061639;28;20471;-81
2023/12/10 06:31:05;;;;;;;4.87;1.83;;;16.20;64.70;;;;;;5047439;28;20497;-82
2023/12/10 06:33:33;;;;;;;5.90;2.30;;;16.20;64.90;;;;;;5045673;28;20454;-82
2023/12/10 06:36:01;;;;;;;6.00;1.90;;;16.20;64.60;;;;;;5048350;28;20459;-81
2023/12/10 06:38:29;;;;;;;5.67;2.30;;;16.20;64.70;;;;;;5046951;28;20544;-82
2023/12/10 06:40:57;;;;;;;5.47;1.93;;;16.20;65.50;;;;;;5057041;28;20510;-81
2023/12/10 06:43:26;;;;;;;11.70;2.50;;;16.20;64.80;;;;;;5047496;28;20509;-81
2023/12/10 06:45:57;;;;;;;10.00;1.83;;;16.20;64.70;;;;;;5052625;28;20547;-80
2023/12/10 06:48:25;;;;;;;6.87;1.90;;;16.20;64.90;;;;;;5054934;28;20466;-81
2023/12/10 06:50:54;;;;;;;12.33;2.17;;;16.20;65.00;;;;;;5048857;28;20438;-81
2023/12/10 06:53:22;;;;;;;7.10;2.10;;;16.20;65.00;;;;;;5058318;28;20492;-82
2023/12/10 06:55:50;;;;;;;4.07;2.00;;;16.20;64.80;;;;;;5049717;28;20432;-81
2023/12/10 06:58:18;;;;;;;9.40;1.90;;;16.20;64.90;;;;;;5051208;28;20487;-82
2023/12/10 07:00:47;;;;;;;6.97;2.00;;;16.20;64.90;;;;;;5060223;28;20466;-81
2023/12/10 07:03:16;;;;;;;5.20;1.60;;;16.20;64.80;;;;;;5060490;28;20836;-82
2023/12/10 07:05:44;;;;;;;10.93;2.23;;;16.20;64.80;;;;;;5046458;28;20467;-82
2023/12/10 07:08:12;;;;;;;2.70;1.70;;;16.20;64.70;;;;;;5046589;28;20566;-82
2023/12/10 07:10:41;;;;;;;4.10;1.87;;;16.20;64.80;;;;;;5052373;28;20436;-81
2023/12/10 07:13:10;;;;;;;8.90;2.20;;;16.20;64.70;;;;;;5055851;28;20446;-82
2023/12/10 07:15:38;;;;;;;5.93;2.10;;;16.20;64.70;;;;;;5048414;28;20443;-81
2023/12/10 07:18:06;;;;;;;6.63;1.83;;;16.30;65.10;;;;;;5053290;28;20474;-80
2023/12/10 07:20:36;;;;;;;4.17;2.00;;;16.30;64.90;;;;;;5056657;28;20439;-82
2023/12/10 07:23:03;;;;;;;3.60;1.57;;;16.30;64.90;;;;;;5045256;28;20451;-82
2023/12/10 07:25:31;;;;;;;4.03;1.73;;;16.30;64.80;;;;;;5060778;28;20478;-82
2023/12/10 07:27:59;;;;;;;7.83;2.00;;;16.30;65.10;;;;;;5050282;28;20467;-81
2023/12/10 07:30:27;;;;;;;4.43;1.70;;;16.30;64.80;;;;;;5055717;28;20462;-82
2023/12/10 07:32:56;;;;;;;5.83;1.90;;;16.30;64.80;;;;;;5049201;28;20530;-81
2023/12/10 07:35:24;;;;;;;3.40;1.50;;;16.30;64.80;;;;;;5055472;28;20483;-81
2023/12/10 07:37:53;;;;;;;8.10;1.90;;;16.40;64.90;;;;;;5044988;28;20485;-81
2023/12/10 07:40:22;;;;;;;4.13;1.60;;;16.40;65.00;;;;;;5049021;28;20438;-81
2023/12/10 07:42:49;;;;;;;3.30;1.60;;;16.40;64.90;;;;;;5044473;28;20439;-82
2023/12/10 07:45:17;;;;;;;4.50;1.50;;;16.40;64.70;;;;;;5048992;28;20439;-81
2023/12/10 07:47:45;;;;;;;3.00;1.53;;;16.40;65.00;;;;;;5041482;28;20510;-82
2023/12/10 07:50:13;;;;;;;2.13;1.40;;;16.40;64.90;;;;;;5053492;28;20550;-81
2023/12/10 07:52:42;;;;;;;4.30;1.60;;;16.40;64.90;;;;;;5049600;28;20447;-81
2023/12/10 07:55:11;;;;;;;4.67;1.53;;;16.40;65.00;;;;;;5049101;28;20466;-82
2023/12/10 07:57:39;;;;;;;4.67;1.90;;;16.40;65.00;;;;;;5052587;28;20467;-83
2023/12/10 08:00:10;;;;;;;2.93;1.50;;;16.50;64.90;;;;;;5044041;28;20443;-82
2023/12/10 08:02:38;;;;;;;3.63;1.60;;;16.50;65.00;;;;;;5054776;28;20434;-81
2023/12/10 08:05:06;;;;;;;2.93;1.43;;;16.50;65.00;;;;;;5051558;28;20486;-82
2023/12/10 08:07:34;;;;;;;2.40;1.53;;;16.50;65.10;;;;;;5052617;28;20489;-81
2023/12/10 08:10:01;;;;;;;5.50;1.80;;;16.50;65.00;;;;;;5048697;28;20506;-82
2023/12/10 08:12:31;;;;;;;4.63;1.67;;;16.50;65.10;;;;;;5056177;28;20435;-81
2023/12/10 08:15:00;;;;;;;4.93;1.90;;;16.50;64.90;;;;;;5060322;28;20430;-81
2023/12/10 08:17:28;;;;;;;5.80;1.90;;;16.50;65.30;;;;;;5047700;28;20950;-82
2023/12/10 08:19:57;;;;;;;3.80;1.70;;;16.50;65.10;;;;;;5056104;28;20457;-82
2023/12/10 08:22:25;;;;;;;5.37;1.63;;;16.50;65.00;;;;;;5049563;28;20482;-81
2023/12/10 08:24:53;;;;;;;4.40;1.50;;;16.50;65.00;;;;;;5052344;28;20453;-81
2023/12/10 08:27:21;;;;;;;2.60;1.77;;;16.50;65.10;;;;;;5048760;28;20466;-81
2023/12/10 08:29:51;;;;;;;3.57;1.70;;;16.60;65.10;;;;;;5048182;28;20459;-81
2023/12/10 08:32:19;;;;;;;4.40;1.73;;;16.60;65.20;;;;;;5046110;28;20485;-81
2023/12/10 08:34:47;;;;;;;6.47;1.60;;;16.60;65.00;;;;;;5046971;28;20474;-83
2023/12/10 08:37:15;;;;;;;2.90;1.70;;;16.60;65.20;;;;;;5047450;28;20487;-81
2023/12/10 08:39:43;;;;;;;2.50;1.50;;;16.60;65.10;;;;;;5044848;28;20493;-81
2023/12/10 08:42:11;;;;;;;4.10;1.70;;;16.60;65.20;;;;;;5045771;28;20451;-81
2023/12/10 08:44:39;;;;;;;5.37;1.80;;;16.60;65.10;;;;;;5044212;28;20510;-81
2023/12/10 08:47:09;;;;;;;3.60;1.60;;;16.60;64.90;;;;;;5042054;28;20475;-80
2023/12/10 08:49:37;;;;;;;4.60;1.63;;;16.60;65.20;;;;;;5046262;28;20470;-82
2023/12/10 08:52:06;;;;;;;5.63;1.67;;;16.60;65.00;;;;;;5042967;28;20474;-82
2023/12/10 08:54:34;;;;;;;3.50;1.40;;;16.60;65.30;;;;;;5047504;28;20447;-82
2023/12/10 08:57:02;;;;;;;2.50;1.43;;;16.70;65.10;;;;;;5048875;28;20440;-82
2023/12/10 08:59:30;;;;;;;4.60;1.83;;;16.70;65.10;;;;;;5059459;28;20461;-81
2023/12/10 09:01:58;;;;;;;3.37;1.50;;;16.70;65.10;;;;;;5066248;28;20451;-81
2023/12/10 09:04:27;;;;;;;4.03;1.40;;;16.70;65.20;;;;;;5048757;28;20480;-81
2023/12/10 09:06:55;;;;;;;2.73;1.90;;;16.70;65.20;;;;;;5046098;28;20991;-81
2023/12/10 09:09:23;;;;;;;5.37;1.83;;;16.70;65.10;;;;;;5056058;28;20459;-82
2023/12/10 09:11:51;;;;;;;3.57;1.70;;;16.70;65.20;;;;;;5042011;28;20427;-80
2023/12/10 09:14:19;;;;;;;1.97;1.63;;;16.70;65.00;;;;;;5055206;28;20925;-82
2023/12/10 09:16:47;;;;;;;3.27;1.57;;;16.80;65.60;;;;;;5046891;28;20436;-82
2023/12/10 09:19:16;;;;;;;5.70;1.43;;;16.80;65.10;;;;;;5047179;28;20501;-81
2023/12/10 09:21:46;;;;;;;2.90;1.27;;;16.90;65.30;;;;;;5070942;28;20468;-82
2023/12/10 09:24:14;;;;;;;3.53;1.93;;;16.90;65.20;;;;;;5064412;28;20443;-82
2023/12/10 09:26:42;;;;;;;3.10;1.67;;;17.00;64.90;;;;;;5062709;28;20474;-81
2023/12/10 09:29:10;;;;;;;4.30;1.70;;;17.00;65.00;;;;;;5058091;28;20486;-82
2023/12/10 09:31:38;;;;;;;1.83;1.70;;;17.00;65.10;;;;;;5043277;28;20458;-82
2023/12/10 09:34:05;;;;;;;2.57;1.53;;;17.10;64.90;;;;;;5044382;28;20471;-82
2023/12/10 09:36:33;;;;;;;4.20;1.50;;;17.10;64.90;;;;;;5049697;28;20930;-82
2023/12/10 09:39:03;;;;;;;3.40;1.60;;;17.10;64.90;;;;;;5045142;28;20455;-81
2023/12/10 09:41:31;;;;;;;2.63;1.93;;;17.20;64.80;;;;;;5041869;28;20451;-82
2023/12/10 09:43:59;;;;;;;1.93;1.60;;;17.20;64.80;;;;;;5046516;28;20482;-81
2023/12/10 09:46:27;;;;;;;3.27;1.70;;;17.20;64.70;;;;;;5038623;28;20439;-82
2023/12/10 09:48:55;;;;;;;5.30;1.40;;;17.30;64.80;;;;;;5042993;28;20521;-81
2023/12/10 09:51:23;;;;;;;1.87;1.30;;;17.30;64.60;;;;;;5048867;28;20498;-82
2023/12/10 09:53:51;;;;;;;3.20;1.70;;;17.40;64.80;;;;;;5043910;28;20449;-81
2023/12/10 09:56:20;;;;;;;3.30;1.70;;;17.50;64.50;;;;;;5048759;28;20940;-81
2023/12/10 09:58:48;;;;;;;2.70;1.20;;;17.50;64.50;;;;;;5053589;28;20521;-81
2023/12/10 10:01:16;;;;;;;3.47;1.70;;;17.60;64.40;;;;;;5051343;28;20443;-82
2023/12/10 10:03:44;;;;;;;3.03;1.60;;;17.60;64.30;;;;;;5055017;28;20450;-82
2023/12/10 10:06:12;;;;;;;3.73;1.37;;;17.60;64.20;;;;;;5052973;28;20450;-81
2023/12/10 10:08:41;;;;;;;2.50;1.30;;;17.50;64.20;;;;;;5053867;28;20478;-82
2023/12/10 10:11:09;;;;;;;2.40;1.50;;;17.50;64.20;;;;;;5052107;28;20498;-81
2023/12/10 10:13:38;;;;;;;4.00;1.70;;;17.50;64.20;;;;;;5047571;28;20537;-80
2023/12/10 10:16:10;;;;;;;1.87;1.40;;;17.50;64.20;;;;;;5044010;28;20546;-81
2023/12/10 10:18:41;;;;;;;2.27;1.57;;;17.50;64.30;;;;;;5052366;28;20470;-81
2023/12/10 10:21:09;;;;;;;1.80;1.50;;;17.40;64.10;;;;;;5047146;28;20481;-81
2023/12/10 10:23:37;;;;;;;2.73;1.50;;;17.40;64.60;;;;;;5054657;28;20441;-82
2023/12/10 10:26:05;;;;;;;1.90;1.60;;;17.40;64.60;;;;;;5054631;28;20451;-81
2023/12/10 10:28:35;;;;;;;2.93;1.30;;;17.40;64.60;;;;;;5053465;28;20493;-81
2023/12/10 10:31:05;;;;;;;3.03;1.27;;;17.40;64.70;;;;;;5048862;28;20465;-81
2023/12/10 10:33:33;;;;;;;5.13;1.57;;;17.40;64.50;;;;;;5055257;28;20977;-82
2023/12/10 10:36:01;;;;;;;2.90;1.50;;;17.30;64.70;;;;;;5038996;28;20448;-81
2023/12/10 10:38:29;;;;;;;3.10;1.60;;;17.30;64.70;;;;;;5053868;28;20458;-81
2023/12/10 10:40:58;;;;;;;4.87;1.67;;;17.30;65.10;;;;;;5053469;28;20454;-84
2023/12/10 10:43:26;;;;;;;3.83;1.37;;;17.30;64.90;;;;;;5044860;28;20451;-83
2023/12/10 10:45:54;;;;;;;3.30;1.40;;;17.30;64.90;;;;;;5047748;28;20474;-82
2023/12/10 10:48:25;;;;;;;1.40;1.30;;;17.30;65.20;;;;;;5053476;28;20478;-82
2023/12/10 10:50:54;;;;;;;2.20;1.40;;;17.30;65.00;;;;;;5046429;28;20543;-81
2023/12/10 10:53:22;;;;;;;3.37;1.77;;;17.30;65.20;;;;;;5049047;28;20451;-82
2023/12/10 10:55:51;;;;;;;1.60;1.30;;;17.30;65.20;;;;;;5042201;28;20470;-81
2023/12/10 10:58:28;;;;;;;2.10;1.30;;;17.30;64.90;;;;;;5052683;28;20461;-82
2023/12/10 11:00:56;;;;;;;2.90;1.50;;;17.30;65.20;;;;;;5053708;28;20525;-81
2023/12/10 11:03:27;;;;;;;2.60;1.53;;;17.30;65.30;;;;;;5041314;28;20479;-82
2023/12/10 11:05:56;;;;;;;2.57;1.37;;;17.30;65.10;;;;;;5044971;28;20447;-82
2023/12/10 11:08:25;;;;;;;4.50;2.00;;;17.30;65.30;;;;;;5055839;28;20470;-82
2023/12/10 11:10:56;;;;;;;2.00;1.33;;;17.30;65.40;;;;;;5052488;28;20440;-81
2023/12/10 11:13:42;;;;;;;6.03;1.50;;;17.30;65.30;;;;;;5036939;28;20508;-80
2023/12/10 11:16:11;;;;;;;1.67;1.30;;;17.30;65.40;;;;;;5054652;28;20427;-77
2023/12/10 11:18:54;;;;;;;2.27;1.50;;;17.30;65.40;;;;;;5067325;28;20996;-81
2023/12/10 11:21:23;;;;;;;1.67;1.57;;;17.20;65.30;;;;;;5070223;28;20450;-82
2023/12/10 11:23:52;;;;;;;2.30;1.33;;;17.30;65.30;;;;;;5058884;28;20450;-83
2023/12/10 11:26:41;;;;;;;2.07;1.40;;;17.30;65.30;;;;;;5050189;28;20520;-82
2023/12/10 11:29:26;;;;;;;2.77;1.60;;;17.30;65.30;;;;;;5053695;28;20537;-83
2023/12/10 11:32:19;;;;;;;2.50;1.50;;;17.20;65.20;;;;;;5053388;28;20439;-81
2023/12/10 11:35:40;;;;;;;4.10;1.67;;;17.30;65.40;;;;;;5056951;28;20450;-84
2023/12/10 11:39:35;;;;;;;9.13;1.40;;;17.30;65.60;;;;;;5033132;28;20499;-82
2023/12/10 11:46:46;;;;;;;2.50;1.40;;;17.30;65.70;;;;;;4954436;28;20830;-84
2023/12/10 11:52:37;;;;;;;1.73;1.40;;;17.30;65.80;;;;;;4956432;28;20479;-82
2023/12/10 11:55:22;;;;;;;1.70;1.20;;;17.30;65.70;;;;;;4972083;28;20453;-86
2023/12/10 11:58:15;;;;;;;3.43;1.83;;;17.30;65.60;;;;;;4973598;28;20500;-82
2023/12/10 12:01:01;;;;;;;3.00;1.40;;;17.30;65.70;;;;;;4972046;28;20535;-84
2023/12/10 12:03:48;;;;;;;2.10;1.30;;;17.30;65.60;;;;;;4980634;28;20462;-81
2023/12/10 12:06:43;;;;;;;1.73;1.23;;;17.30;66.00;;;;;;4971959;28;20466;-84
2023/12/10 12:12:11;;;;;;;5.00;1.60;;;17.30;65.60;;;;;;4973812;28;20606;-83
2023/12/10 12:14:58;;;;;;;4.10;1.37;;;17.30;65.70;;;;;;4965095;28;20538;-83
2023/12/10 12:17:31;;;;;;;11.83;1.70;;;17.30;65.70;;;;;;4974854;28;20475;-81
2023/12/10 12:20:14;;;;;;;3.20;1.20;;;17.30;65.70;;;;;;5053181;28;20466;-83
2023/12/10 12:22:46;;;;;;;2.50;1.20;;;17.30;65.80;;;;;;5047582;28;20454;-83
2023/12/10 12:25:34;;;;;;;3.97;1.30;;;17.30;65.70;;;;;;5052604;28;20482;-82
2023/12/10 12:28:22;;;;;;;3.07;1.83;;;17.30;65.60;;;;;;5050117;22;20491;-81
2023/12/10 12:31:40;;;;;;;;;;;;;;;;;;;;;
2023/12/10 12:35:25;;;;;;;2.10;1.50;;;17.30;65.70;;;;;;5027701;28;20535;-82
2023/12/10 12:38:43;;;;;;;3.70;1.53;;;17.30;66.00;;;;;;4988335;28;20480;-81
2023/12/10 12:41:26;;;;;;;1.40;1.23;;;17.30;65.90;;;;;;5008940;28;20510;-81
2023/12/10 12:44:39;;;;;;;1.80;1.23;;;17.30;65.70;;;;;;5012974;28;20428;-81
2023/12/10 12:47:14;;;;;;;3.53;1.30;;;17.30;65.80;;;;;;5010406;28;20460;-79
2023/12/10 13:00:32;;;;;;;3.33;1.57;;;17.30;66.00;;;;;;4876614;29;20585;-84
2023/12/10 13:03:23;;;;;;;6.37;2.07;;;17.30;66.30;;;;;;4916339;29;20479;-81
2023/12/10 13:05:52;;;;;;;4.00;1.60;;;17.30;66.00;;;;;;4919637;29;20444;-83
2023/12/10 13:09:17;;;;;;;4.97;2.13;;;17.30;66.10;;;;;;4921417;29;20473;-86
2023/12/10 13:12:42;;;;;;;2.93;1.80;;;17.30;66.20;;;;;;5010710;28;20463;-84
2023/12/10 13:19:25;;;;;;;7.13;2.37;;;17.30;66.30;;;;;;5020546;28;20495;-85
2023/12/10 13:22:06;;;;;;;8.33;2.23;;;17.30;66.10;;;;;;5009706;28;20463;-85
2023/12/10 13:24:55;;;;;;;6.93;2.60;;;17.20;65.80;;;;;;5020889;28;20445;-85
2023/12/10 13:27:31;;;;;;;5.77;2.43;;;17.30;66.00;;;;;;5010056;28;20451;-85
2023/12/10 13:30:03;;;;;;;4.33;2.33;;;17.30;66.00;;;;;;5017808;28;20474;-84
2023/12/10 13:32:47;;;;;;;6.23;2.77;;;17.30;65.90;;;;;;5019870;28;20444;-84